createdAt,value
2022-12-28T00:00:32.392Z,21.3
2022-12-28T00:01:39.567Z,22.8
2022-12-28T00:02:46.621Z,22.9
2022-12-28T00:03:53.794Z,23.2
2022-12-28T00:05:04.475Z,22.8
2022-12-28T00:06:12.198Z,23.4
2022-12-28T00:07:19.123Z,23.3
2022-12-28T00:08:26.395Z,22.1
2022-12-28T00:09:33.291Z,20.4
2022-12-28T00:11:06.952Z,20.1
2022-12-28T00:11:47.692Z,20.9
2022-12-28T00:12:54.847Z,19.7
2022-12-28T00:14:02.667Z,22
2022-12-28T00:15:10.355Z,22.3
2022-12-28T00:16:18.817Z,22.3
2022-12-28T00:17:28.768Z,21.7
2022-12-28T00:18:36.592Z,22.4
2022-12-28T00:19:43.828Z,20.7
2022-12-28T00:20:51.064Z,22.8
2022-12-28T00:22:00.951Z,24.9
2022-12-28T00:23:07.976Z,20.5
2022-12-28T00:24:15.119Z,20
2022-12-28T00:25:22.272Z,23.4
2022-12-28T00:26:29.451Z,21.1
2022-12-28T00:27:36.617Z,22.9
2022-12-28T00:28:43.824Z,20.7
2022-12-28T00:29:50.993Z,22.2
2022-12-28T00:30:58.115Z,24.7
2022-12-28T00:32:04.936Z,25.8
2022-12-28T00:33:12.348Z,21.7
2022-12-28T00:34:19.887Z,23.4
2022-12-28T00:35:26.948Z,21.8
2022-12-28T00:37:07.786Z,21
2022-12-28T00:37:41.214Z,21.7
2022-12-28T00:38:48.393Z,21.6
2022-12-28T00:39:55.900Z,21.9
2022-12-28T00:41:02.929Z,22.3
2022-12-28T00:42:10.200Z,19.8
2022-12-28T00:43:17.247Z,18.7
2022-12-28T00:44:24.384Z,18.2
2022-12-28T00:45:31.551Z,21.5
2022-12-28T00:46:38.746Z,19.6
2022-12-28T00:47:45.834Z,17.7
2022-12-28T00:48:53.080Z,19.3
2022-12-28T00:50:00.316Z,20.4
2022-12-28T00:51:07.526Z,20.8
2022-12-28T00:52:14.724Z,19
2022-12-28T00:53:21.867Z,19.5
2022-12-28T00:54:28.971Z,16.2
2022-12-28T00:55:36.251Z,17.3
2022-12-28T00:56:43.237Z,19.9
2022-12-28T00:57:51.289Z,20.1
2022-12-28T00:58:58.610Z,19.7
2022-12-28T01:00:06.375Z,17.1
2022-12-28T01:01:14.139Z,20
2022-12-28T01:02:23.768Z,17.3
2022-12-28T01:03:32.746Z,18.4
2022-12-28T01:04:39.694Z,18.2
2022-12-28T01:05:47.232Z,18.4
2022-12-28T01:06:54.475Z,19.8
2022-12-28T01:08:01.815Z,17
2022-12-28T01:09:08.980Z,16.9
2022-12-28T01:10:16.011Z,18.7
2022-12-28T01:11:23.321Z,15.7
2022-12-28T01:12:36.292Z,18.7
2022-12-28T01:13:39.864Z,16.7
2022-12-28T01:14:47.175Z,18.5
2022-12-28T01:15:54.379Z,16.7
2022-12-28T01:17:01.503Z,16.4
2022-12-28T01:18:08.362Z,17.1
2022-12-28T01:19:15.731Z,17.8
2022-12-28T01:20:23.574Z,16.8
2022-12-28T01:21:30.864Z,17.2
2022-12-28T01:22:38.023Z,15.3
2022-12-28T01:23:45.103Z,19.1
2022-12-28T01:24:52.642Z,15.4
2022-12-28T01:26:00.125Z,18.3
2022-12-28T01:27:07.736Z,14.5
2022-12-28T01:28:14.486Z,15
2022-12-28T01:29:21.679Z,16
2022-12-28T01:30:28.907Z,14.5
2022-12-28T01:31:36.930Z,16.4
2022-12-28T01:32:44.152Z,14.7
2022-12-28T01:33:51.485Z,17.8
2022-12-28T01:34:58.550Z,17.2
2022-12-28T01:36:06.428Z,16.5
2022-12-28T01:37:16.856Z,15.4
2022-12-28T01:38:23.772Z,15.1
2022-12-28T01:39:31.171Z,18
2022-12-28T01:40:38.076Z,16.3
2022-12-28T01:41:45.423Z,16.3
2022-12-28T01:42:52.426Z,15.7
2022-12-28T01:43:59.694Z,15.2
2022-12-28T01:45:06.876Z,15.5
2022-12-28T01:46:17.157Z,14.4
2022-12-28T01:47:24.167Z,12.3
2022-12-28T01:48:31.367Z,13.7
2022-12-28T01:49:39.007Z,13.9
2022-12-28T01:50:52.127Z,14.5
2022-12-28T01:51:59.223Z,12.6
2022-12-28T01:53:11.479Z,14
2022-12-28T01:54:19.460Z,12.1
2022-12-28T01:55:26.374Z,15.5
2022-12-28T01:56:39.327Z,14.6
2022-12-28T01:57:46.258Z,14.3
2022-12-28T01:58:53.449Z,13
2022-12-28T02:00:00.775Z,15.4
2022-12-28T02:01:11.075Z,14.3
2022-12-28T02:02:18.239Z,12.7
2022-12-28T02:03:26.099Z,15
2022-12-28T02:04:33.730Z,17.1
2022-12-28T02:05:40.606Z,14.2
2022-12-28T02:06:47.731Z,12.7
2022-12-28T02:07:55.011Z,14.7
2022-12-28T02:09:02.859Z,14.6
2022-12-28T02:10:40.338Z,14.3
2022-12-28T02:11:19.654Z,15.1
2022-12-28T02:12:27.022Z,13.8
2022-12-28T02:13:34.000Z,13.9
2022-12-28T02:14:41.180Z,15.1
2022-12-28T02:15:49.405Z,14.6
2022-12-28T02:16:56.656Z,14
2022-12-28T02:18:04.249Z,13.3
2022-12-28T02:19:10.999Z,13.6
2022-12-28T02:20:18.135Z,14.2
2022-12-28T02:21:25.310Z,12.6
2022-12-28T02:22:42.703Z,11.7
2022-12-28T02:23:55.201Z,11.3
2022-12-28T02:25:11.702Z,12.9
2022-12-28T02:26:17.139Z,12.7
2022-12-28T02:27:29.688Z,12.3
2022-12-28T02:28:47.292Z,13.7
2022-12-28T02:30:04.909Z,14.1
2022-12-28T02:31:15.415Z,12
2022-12-28T02:32:22.030Z,12.9
2022-12-28T02:33:37.197Z,12.1
2022-12-28T02:34:46.777Z,11.7
2022-12-28T02:36:00.206Z,13.2
2022-12-28T02:37:07.486Z,12.2
2022-12-28T02:38:14.595Z,14.5
2022-12-28T02:39:21.743Z,13.9
2022-12-28T02:40:29.098Z,14.8
2022-12-28T02:41:36.038Z,14.8
2022-12-28T02:42:43.207Z,15
2022-12-28T02:43:51.346Z,16.6
2022-12-28T02:44:58.554Z,15.6
2022-12-28T02:46:11.849Z,16.8
2022-12-28T02:47:29.433Z,12.8
2022-12-28T02:48:41.662Z,13.2
2022-12-28T02:49:53.884Z,11.7
2022-12-28T02:51:05.833Z,12.7
2022-12-28T02:52:23.620Z,10.8
2022-12-28T02:53:41.146Z,12.8
2022-12-28T02:54:53.222Z,12
2022-12-28T02:56:15.589Z,13
2022-12-28T02:57:29.196Z,11.5
2022-12-28T02:58:41.821Z,12.9
2022-12-28T02:59:54.348Z,11.9
2022-12-28T03:01:06.500Z,12
2022-12-28T03:02:18.812Z,10.6
2022-12-28T03:03:28.418Z,11
2022-12-28T03:04:45.872Z,12.7
2022-12-28T03:05:58.613Z,11.9
2022-12-28T03:07:16.333Z,10.9
2022-12-28T03:08:36.530Z,13.2
2022-12-28T03:09:54.047Z,11.8
2022-12-28T03:11:08.989Z,12.3
2022-12-28T03:12:16.393Z,13.3
2022-12-28T03:13:26.329Z,11
2022-12-28T03:14:41.206Z,11.6
2022-12-28T03:15:49.269Z,11.4
2022-12-28T03:16:56.543Z,12.6
2022-12-28T03:18:09.071Z,11
2022-12-28T03:19:21.310Z,12.5
2022-12-28T03:20:33.541Z,10.5
2022-12-28T03:21:46.022Z,11.1
2022-12-28T03:22:58.374Z,10.5
2022-12-28T03:24:10.661Z,10.5
2022-12-28T03:25:22.900Z,11.2
2022-12-28T03:26:35.092Z,10.7
2022-12-28T03:27:50.460Z,9.5
2022-12-28T03:29:03.007Z,10.6
2022-12-28T03:30:15.515Z,10.8
2022-12-28T03:31:28.016Z,10.4
2022-12-28T03:32:36.069Z,9.9
2022-12-28T03:33:43.389Z,11
2022-12-28T03:34:50.465Z,9.6
2022-12-28T03:35:57.576Z,10.2
2022-12-28T03:37:15.166Z,9.9
2022-12-28T03:38:28.262Z,12.2
2022-12-28T03:39:35.138Z,11
2022-12-28T03:40:45.357Z,11.3
2022-12-28T03:41:52.489Z,11
2022-12-28T03:43:04.969Z,10
2022-12-28T03:44:22.510Z,12.2
2022-12-28T03:45:44.504Z,10.9
2022-12-28T03:46:42.620Z,11.4
2022-12-28T03:47:52.798Z,10.4
2022-12-28T03:49:00.045Z,12.6
2022-12-28T03:50:08.063Z,10.8
2022-12-28T03:51:15.248Z,9.7
2022-12-28T03:52:25.450Z,10.2
2022-12-28T03:53:32.606Z,10.2
2022-12-28T03:54:42.286Z,10.3
2022-12-28T03:55:49.460Z,9.6
2022-12-28T03:56:56.625Z,10.2
2022-12-28T03:58:03.775Z,12.1
2022-12-28T03:59:11.187Z,8.5
2022-12-28T04:00:18.304Z,11.1
2022-12-28T04:01:25.546Z,10.3
2022-12-28T04:02:32.881Z,9.3
2022-12-28T04:03:39.827Z,10.3
2022-12-28T04:04:46.987Z,10.9
2022-12-28T04:05:54.380Z,11.6
2022-12-28T04:07:01.530Z,10.7
2022-12-28T04:08:08.676Z,11.2
2022-12-28T04:09:15.843Z,12.3
2022-12-28T04:10:22.910Z,14.2
2022-12-28T04:11:30.154Z,10.8
2022-12-28T04:12:37.428Z,11.3
2022-12-28T04:13:44.782Z,12
2022-12-28T04:14:52.222Z,10.7
2022-12-28T04:15:59.586Z,12.5
2022-12-28T04:17:09.455Z,11.6
2022-12-28T04:18:16.322Z,11.6
2022-12-28T04:19:23.454Z,11.3
2022-12-28T04:20:30.761Z,11.9
2022-12-28T04:21:37.901Z,11.5
2022-12-28T04:22:44.879Z,10.2
2022-12-28T04:23:52.350Z,10.7
2022-12-28T04:24:59.721Z,12.8
2022-12-28T04:26:07.894Z,12.6
2022-12-28T04:27:14.723Z,12.9
2022-12-28T04:28:21.995Z,11.7
2022-12-28T04:29:28.994Z,10.5
2022-12-28T04:30:36.039Z,12.6
2022-12-28T04:31:43.325Z,13.4
2022-12-28T04:32:50.410Z,11.4
2022-12-28T04:33:57.609Z,11.7
2022-12-28T04:35:05.079Z,12.4
2022-12-28T04:36:12.089Z,11.3
2022-12-28T04:37:19.229Z,12.8
2022-12-28T04:38:26.610Z,10.4
2022-12-28T04:39:54.463Z,10.9
2022-12-28T04:40:40.654Z,10.7
2022-12-28T04:41:48.003Z,10.7
2022-12-28T04:42:54.969Z,14
2022-12-28T04:44:01.905Z,12.2
2022-12-28T04:45:09.011Z,11.2
2022-12-28T04:46:16.159Z,11.4
2022-12-28T04:47:23.370Z,12.7
2022-12-28T04:48:30.410Z,12.7
2022-12-28T04:49:37.768Z,12.1
2022-12-28T04:50:44.759Z,14.5
2022-12-28T04:51:51.913Z,14.9
2022-12-28T04:52:58.684Z,15.5
2022-12-28T04:54:06.168Z,16.3
2022-12-28T04:55:31.664Z,14.7
2022-12-28T04:56:23.429Z,15.9
2022-12-28T04:57:30.470Z,18.6
2022-12-28T04:58:37.590Z,16.1
2022-12-28T04:59:44.736Z,17
2022-12-28T05:00:51.908Z,16.5
2022-12-28T05:01:58.875Z,15.2
2022-12-28T05:03:05.893Z,18.9
2022-12-28T05:04:13.131Z,17.3
2022-12-28T05:05:20.245Z,17.3
2022-12-28T05:06:27.440Z,17.9
2022-12-28T05:07:34.608Z,17.2
2022-12-28T05:08:41.967Z,18.5
2022-12-28T05:09:48.840Z,21
2022-12-28T05:10:56.068Z,20.3
2022-12-28T05:12:02.869Z,20.1
2022-12-28T05:13:10.061Z,19.8
2022-12-28T05:14:17.242Z,21.6
2022-12-28T05:15:24.471Z,21.2
2022-12-28T05:16:31.559Z,20.3
2022-12-28T05:17:39.840Z,21.5
2022-12-28T05:18:47.077Z,22.2
2022-12-28T05:19:54.080Z,22.2
2022-12-28T05:21:00.874Z,20.1
2022-12-28T05:22:09.238Z,18.9
2022-12-28T05:23:16.315Z,18.5
2022-12-28T05:24:23.343Z,19.4
2022-12-28T05:25:30.434Z,18
2022-12-28T05:26:37.620Z,18.8
2022-12-28T05:27:44.799Z,16.3
2022-12-28T05:28:51.956Z,17.8
2022-12-28T05:29:58.859Z,15.8
2022-12-28T05:31:05.923Z,16.3
2022-12-28T05:32:13.414Z,16.1
2022-12-28T05:33:21.190Z,15.8
2022-12-28T05:34:28.421Z,14.1
2022-12-28T05:35:35.597Z,14.2
2022-12-28T05:36:42.786Z,14
2022-12-28T05:37:49.892Z,14
2022-12-28T05:38:57.166Z,11.6
2022-12-28T05:40:03.962Z,12
2022-12-28T05:41:12.458Z,11.5
2022-12-28T05:42:24.869Z,11.6
2022-12-28T05:43:31.935Z,10.1
2022-12-28T05:44:39.139Z,9.9
2022-12-28T05:45:46.264Z,13.6
2022-12-28T05:46:53.464Z,9.9
2022-12-28T05:48:00.783Z,11.3
2022-12-28T05:49:08.879Z,11.1
2022-12-28T05:50:16.090Z,11.9
2022-12-28T05:51:23.348Z,11.9
2022-12-28T05:52:30.470Z,11.3
2022-12-28T05:53:37.663Z,13
2022-12-28T05:54:45.949Z,11.8
2022-12-28T05:55:53.199Z,13
2022-12-28T05:57:05.513Z,13.2
2022-12-28T05:58:12.667Z,13.4
2022-12-28T05:59:20.559Z,13.9
2022-12-28T06:00:28.350Z,13.6
2022-12-28T06:01:35.779Z,14.3
2022-12-28T06:02:42.867Z,15
2022-12-28T06:03:51.318Z,13.3
2022-12-28T06:04:58.787Z,11.9
2022-12-28T06:06:06.079Z,13.3
2022-12-28T06:07:15.719Z,12.4
2022-12-28T06:08:23.167Z,11.9
2022-12-28T06:09:30.085Z,12.4
2022-12-28T06:10:37.264Z,12.8
2022-12-28T06:11:44.544Z,12.3
2022-12-28T06:12:52.323Z,12.4
2022-12-28T06:14:00.390Z,13.1
2022-12-28T06:15:07.570Z,13.8
2022-12-28T06:16:14.759Z,13.4
2022-12-28T06:17:21.857Z,12.2
2022-12-28T06:18:29.024Z,12.9
2022-12-28T06:19:36.396Z,14.6
2022-12-28T06:20:43.310Z,13
2022-12-28T06:21:51.030Z,15.2
2022-12-28T06:22:59.152Z,14.2
2022-12-28T06:24:05.998Z,11.6
2022-12-28T06:25:13.186Z,12.5
2022-12-28T06:26:20.403Z,14.1
2022-12-28T06:27:27.520Z,12
2022-12-28T06:28:35.592Z,10.5
2022-12-28T06:29:42.852Z,11.9
2022-12-28T06:30:52.728Z,10
2022-12-28T06:31:58.120Z,10.7
2022-12-28T06:33:05.051Z,12.4
2022-12-28T06:34:12.168Z,11.8
2022-12-28T06:35:19.298Z,11.1
2022-12-28T06:36:26.961Z,11.2
2022-12-28T06:37:37.162Z,11.2
2022-12-28T06:38:45.956Z,11.1
2022-12-28T06:39:53.086Z,12.3
2022-12-28T06:41:13.178Z,13.4
2022-12-28T06:42:07.145Z,10.4
2022-12-28T06:43:14.226Z,11.3
2022-12-28T06:44:21.370Z,11.5
2022-12-28T06:45:28.432Z,10.3
2022-12-28T06:46:35.726Z,10.6
2022-12-28T06:47:42.829Z,11.1
2022-12-28T06:48:49.995Z,11.5
2022-12-28T06:49:57.303Z,14.7
2022-12-28T06:51:05.332Z,11.7
2022-12-28T06:52:15.239Z,12.8
2022-12-28T06:53:22.606Z,12.3
2022-12-28T06:54:29.723Z,12.3
2022-12-28T06:55:36.665Z,12.1
2022-12-28T06:56:43.902Z,11.2
2022-12-28T06:57:51.224Z,11.2
2022-12-28T06:59:02.712Z,11.9
2022-12-28T07:00:06.798Z,13.1
2022-12-28T07:01:15.569Z,13.2
2022-12-28T07:02:22.886Z,13.7
2022-12-28T07:03:29.990Z,13.3
2022-12-28T07:04:37.177Z,13.3
2022-12-28T07:05:44.437Z,13.3
2022-12-28T07:06:51.441Z,11.9
2022-12-28T07:07:58.485Z,14
2022-12-28T07:09:05.351Z,13.7
2022-12-28T07:10:12.468Z,12.7
2022-12-28T07:11:20.223Z,13.9
2022-12-28T07:12:27.732Z,13.3
2022-12-28T07:13:34.998Z,11.8
2022-12-28T07:14:42.255Z,13.9
2022-12-28T07:15:49.405Z,14.1
2022-12-28T07:16:57.326Z,15.5
2022-12-28T07:18:04.477Z,13.7
2022-12-28T07:19:12.648Z,16.2
2022-12-28T07:20:19.804Z,19.6
2022-12-28T07:21:26.889Z,16.2
2022-12-28T07:22:34.018Z,15.7
2022-12-28T07:23:41.189Z,16.3
2022-12-28T07:24:48.572Z,18
2022-12-28T07:25:55.582Z,20
2022-12-28T07:27:02.886Z,19.9
2022-12-28T07:28:09.993Z,19.4
2022-12-28T07:29:17.233Z,19.4
2022-12-28T07:30:24.510Z,19.7
2022-12-28T07:31:31.812Z,18.8
2022-12-28T07:32:39.230Z,18.3
2022-12-28T07:33:46.416Z,19.3
2022-12-28T07:34:53.455Z,19.7
2022-12-28T07:36:00.362Z,19.7
2022-12-28T07:37:07.494Z,18.8
2022-12-28T07:38:19.531Z,18.9
2022-12-28T07:39:21.889Z,16.8
2022-12-28T07:40:28.998Z,16.2
2022-12-28T07:41:36.269Z,19
2022-12-28T07:42:43.355Z,16.4
2022-12-28T07:43:50.531Z,16.2
2022-12-28T07:44:57.754Z,18.1
2022-12-28T07:46:05.039Z,16.3
2022-12-28T07:47:12.186Z,19
2022-12-28T07:48:19.360Z,16.1
2022-12-28T07:49:26.500Z,18.6
2022-12-28T07:50:37.716Z,15.9
2022-12-28T07:51:40.963Z,16.1
2022-12-28T07:52:47.919Z,18
2022-12-28T07:53:55.110Z,17.5
2022-12-28T07:55:02.029Z,17.6
2022-12-28T07:56:09.187Z,18.4
2022-12-28T07:57:16.351Z,16.2
2022-12-28T07:58:23.521Z,18.1
2022-12-28T07:59:31.206Z,16.5
2022-12-28T08:00:37.893Z,17.8
2022-12-28T08:01:45.021Z,16.8
2022-12-28T08:02:55.158Z,17.2
2022-12-28T08:04:02.171Z,17.2
2022-12-28T08:05:11.801Z,17.5
2022-12-28T08:06:19.051Z,19.6
2022-12-28T08:07:26.288Z,17
2022-12-28T08:08:33.266Z,15.5
2022-12-28T08:09:40.440Z,17.7
2022-12-28T08:10:48.098Z,19
2022-12-28T08:11:56.448Z,21.3
2022-12-28T08:13:04.497Z,21.4
2022-12-28T08:14:12.241Z,23.2
2022-12-28T08:15:19.413Z,22.6
2022-12-28T08:16:26.625Z,23.3
2022-12-28T08:17:34.580Z,24.8
2022-12-28T08:18:41.461Z,23.8
2022-12-28T08:19:48.628Z,21.6
2022-12-28T08:20:55.845Z,23.2
2022-12-28T08:22:03.215Z,19.7
2022-12-28T08:23:11.008Z,19.8
2022-12-28T08:24:18.039Z,22.4
2022-12-28T08:25:25.209Z,21
2022-12-28T08:26:33.350Z,22.3
2022-12-28T08:27:40.678Z,17.6
2022-12-28T08:28:47.718Z,18.9
2022-12-28T08:29:55.648Z,21
2022-12-28T08:31:02.699Z,18.3
2022-12-28T08:32:14.923Z,22.2
2022-12-28T08:33:22.127Z,19.6
2022-12-28T08:34:29.181Z,22.7
2022-12-28T08:35:36.408Z,21.5
2022-12-28T08:36:43.728Z,22.8
2022-12-28T08:37:50.703Z,22.5
2022-12-28T08:38:57.823Z,24.6
2022-12-28T08:40:05.697Z,22.3
2022-12-28T08:41:13.430Z,21.9
2022-12-28T08:42:20.674Z,21.9
2022-12-28T08:43:27.760Z,21.9
2022-12-28T08:44:34.864Z,21.1
2022-12-28T08:45:41.884Z,21.7
2022-12-28T08:46:50.279Z,21.2
2022-12-28T08:47:57.225Z,19.1
2022-12-28T08:49:04.241Z,20.7
2022-12-28T08:50:12.278Z,20.7
2022-12-28T08:51:18.638Z,20.8
2022-12-28T08:52:30.909Z,20.2
2022-12-28T08:53:38.277Z,20.7
2022-12-28T08:54:45.489Z,18.6
2022-12-28T08:55:52.725Z,21.4
2022-12-28T08:56:59.618Z,20.1
2022-12-28T08:58:06.780Z,19.4
2022-12-28T08:59:14.268Z,21
2022-12-28T09:00:21.736Z,20.3
2022-12-28T09:01:29.026Z,20.8
2022-12-28T09:02:39.383Z,23.1
2022-12-28T09:03:46.308Z,23.2
2022-12-28T09:04:53.688Z,24.1
2022-12-28T09:06:04.461Z,21.3
2022-12-28T09:07:15.182Z,26.1
2022-12-28T09:08:23.682Z,23.2
2022-12-28T09:09:30.913Z,23.6
2022-12-28T09:10:38.490Z,23.5
2022-12-28T09:11:45.276Z,24
2022-12-28T09:12:52.191Z,24.1
2022-12-28T09:13:59.185Z,27.5
2022-12-28T09:15:06.371Z,30.5
2022-12-28T09:16:13.556Z,24.1
2022-12-28T09:17:20.690Z,26.7
2022-12-28T09:18:27.800Z,28
2022-12-28T09:19:35.099Z,30.2
2022-12-28T09:20:47.633Z,30.1
2022-12-28T09:21:49.517Z,26.5
2022-12-28T09:22:56.483Z,26.4
2022-12-28T09:24:03.393Z,29.7
2022-12-28T09:25:10.597Z,27.8
2022-12-28T09:26:17.851Z,29
2022-12-28T09:27:24.871Z,28.1
2022-12-28T09:28:31.991Z,27.6
2022-12-28T09:29:39.155Z,23.4
2022-12-28T09:30:46.343Z,21.5
2022-12-28T09:31:53.639Z,20.1
2022-12-28T09:33:01.027Z,18.5
2022-12-28T09:35:20.564Z,18.2
2022-12-28T09:36:27.511Z,19
2022-12-28T09:37:37.320Z,18.2
2022-12-28T09:38:44.523Z,19.9
2022-12-28T09:39:51.721Z,18.9
2022-12-28T09:40:58.702Z,20.3
2022-12-28T09:42:05.944Z,17.6
2022-12-28T09:43:15.798Z,16.2
2022-12-28T09:44:23.123Z,17.8
2022-12-28T09:45:30.120Z,19.5
2022-12-28T09:46:37.359Z,16.7
2022-12-28T09:47:49.636Z,15.8
2022-12-28T09:48:56.735Z,16
2022-12-28T09:50:03.638Z,15.2
2022-12-28T09:51:19.112Z,15.9
2022-12-28T09:52:26.118Z,18.8
2022-12-28T09:53:35.867Z,15
2022-12-28T09:54:43.020Z,17.6
2022-12-28T09:55:50.191Z,18
2022-12-28T09:57:08.100Z,17.3
2022-12-28T09:58:14.967Z,18.9
2022-12-28T09:59:22.112Z,18.5
2022-12-28T10:00:29.327Z,19.5
2022-12-28T10:01:41.608Z,21
2022-12-28T10:02:48.926Z,20.2
2022-12-28T10:03:55.856Z,18.5
2022-12-28T10:05:02.923Z,19.2
2022-12-28T10:06:10.020Z,22
2022-12-28T10:07:17.080Z,19.8
2022-12-28T10:08:24.236Z,24.9
2022-12-28T10:09:31.379Z,26.8
2022-12-28T10:10:38.601Z,23.8
2022-12-28T10:11:45.863Z,25.1
2022-12-28T10:12:52.916Z,23.4
2022-12-28T10:13:59.888Z,20.1
2022-12-28T10:15:06.899Z,18.9
2022-12-28T10:16:16.732Z,19
2022-12-28T10:17:23.774Z,19.6
2022-12-28T10:18:34.656Z,18.4
2022-12-28T10:19:38.210Z,19.4
2022-12-28T10:20:45.297Z,18
2022-12-28T10:21:52.407Z,20.4
2022-12-28T10:22:59.491Z,20.5
2022-12-28T10:24:31.154Z,20.8
2022-12-28T10:25:13.550Z,20.8
2022-12-28T10:26:20.703Z,21
2022-12-28T10:27:27.916Z,17.9
2022-12-28T10:28:35.004Z,19.8
2022-12-28T10:29:44.785Z,18.7
2022-12-28T10:30:54.458Z,18.1
2022-12-28T10:32:06.437Z,14.6
2022-12-28T10:33:13.970Z,14.1
2022-12-28T10:34:20.773Z,16
2022-12-28T10:35:27.915Z,16.7
2022-12-28T10:36:45.341Z,17.4
2022-12-28T10:37:52.412Z,22.6
2022-12-28T10:38:59.620Z,22.1
2022-12-28T10:40:06.434Z,24.6
2022-12-28T10:41:13.667Z,20
2022-12-28T10:42:20.932Z,20.2
2022-12-28T10:43:31.154Z,21.8
2022-12-28T10:44:43.267Z,22.5
2022-12-28T10:45:50.437Z,24.6
2022-12-28T10:46:57.774Z,23.7
2022-12-28T10:48:04.936Z,17.3
2022-12-28T10:49:15.462Z,19.7
2022-12-28T10:50:36.421Z,21
2022-12-28T10:51:36.705Z,24.8
2022-12-28T10:52:43.793Z,20.2
2022-12-28T10:53:50.968Z,21.2
2022-12-28T10:55:07.826Z,20.7
2022-12-28T10:56:08.006Z,23.3
2022-12-28T10:57:15.176Z,20.3
2022-12-28T10:58:31.551Z,20.1
2022-12-28T10:59:29.451Z,21.6
2022-12-28T11:00:36.651Z,22.7
2022-12-28T11:01:43.930Z,22
2022-12-28T11:02:50.962Z,21.6
2022-12-28T11:03:57.619Z,19.7
2022-12-28T11:05:04.913Z,19.7
2022-12-28T11:06:12.045Z,21.1
2022-12-28T11:07:24.332Z,20.7
2022-12-28T11:08:31.436Z,22.2
2022-12-28T11:09:38.561Z,20.6
2022-12-28T11:10:45.747Z,21.7
2022-12-28T11:11:52.859Z,21.4
2022-12-28T11:12:59.700Z,22.4
2022-12-28T11:14:07.088Z,23.6
2022-12-28T11:15:19.171Z,23.6
2022-12-28T11:16:26.312Z,23.6
2022-12-28T11:17:33.524Z,24.2
2022-12-28T11:18:40.613Z,19.9
2022-12-28T11:19:47.742Z,22
2022-12-28T11:20:57.427Z,21.9
2022-12-28T11:22:04.268Z,21.4
2022-12-28T11:23:13.872Z,24.2
2022-12-28T11:24:26.212Z,24.6
2022-12-28T11:25:33.401Z,24.2
2022-12-28T11:26:40.525Z,24.7
2022-12-28T11:27:47.736Z,23
2022-12-28T11:28:54.871Z,26.6
2022-12-28T11:30:01.792Z,24
2022-12-28T11:31:08.961Z,25.8
2022-12-28T11:32:21.155Z,29.1
2022-12-28T11:33:28.344Z,29.9
2022-12-28T11:34:35.400Z,30.2
2022-12-28T11:35:42.624Z,32.5
2022-12-28T11:36:49.833Z,28.4
2022-12-28T11:37:57.166Z,28.4
2022-12-28T11:39:04.303Z,25.8
2022-12-28T11:40:21.723Z,23.5
2022-12-28T11:41:37.039Z,21.7
2022-12-28T11:42:44.215Z,21.4
2022-12-28T11:43:56.428Z,20.6
2022-12-28T11:45:03.326Z,23
2022-12-28T11:46:15.679Z,23.9
2022-12-28T11:47:28.423Z,21.8
2022-12-28T11:48:32.475Z,21.8
2022-12-28T11:49:45.162Z,21.8
2022-12-28T11:50:52.348Z,21.8
2022-12-28T11:51:59.730Z,21.8
2022-12-28T11:53:17.335Z,21.8
2022-12-28T11:54:24.236Z,21.8
2022-12-28T11:55:39.139Z,21.8
2022-12-28T11:56:46.485Z,21.8
2022-12-28T11:57:53.467Z,21.8
2022-12-28T11:59:00.764Z,21.8
2022-12-28T12:00:08.002Z,29.7
2022-12-28T12:01:20.379Z,27.1
2022-12-28T12:02:30.577Z,32.5
2022-12-28T12:03:40.734Z,28.9
2022-12-28T12:04:58.063Z,23.6
2022-12-28T12:06:05.139Z,24.1
2022-12-28T12:07:12.168Z,23.5
2022-12-28T12:08:21.966Z,22.4
2022-12-28T12:09:34.058Z,20.1
2022-12-28T12:10:41.282Z,19.8
2022-12-28T12:11:48.462Z,22.6
2022-12-28T12:12:55.626Z,28
2022-12-28T12:14:02.437Z,26.1
2022-12-28T12:15:09.623Z,27.2
2022-12-28T12:16:17.037Z,26.6
2022-12-28T12:17:32.156Z,24.2
2022-12-28T12:18:44.426Z,24.2
2022-12-28T12:19:54.088Z,25.3
2022-12-28T12:21:10.223Z,23.9
2022-12-28T12:22:13.811Z,24.4
2022-12-28T12:23:23.984Z,28.8
2022-12-28T12:24:31.180Z,21.9
2022-12-28T12:25:38.277Z,22.6
2022-12-28T12:26:48.024Z,23.9
2022-12-28T12:28:00.455Z,27.7
2022-12-28T12:29:15.983Z,23.6
2022-12-28T12:30:26.152Z,22.7
2022-12-28T12:31:33.205Z,22.1
2022-12-28T12:32:43.000Z,18.3
2022-12-28T12:33:55.128Z,18.3
2022-12-28T12:35:10.204Z,19.1
2022-12-28T12:36:17.342Z,19.7
2022-12-28T12:37:34.772Z,20
2022-12-28T12:38:52.169Z,19.1
2022-12-28T12:40:04.092Z,20.3
2022-12-28T12:41:21.467Z,21.1
2022-12-28T12:42:33.775Z,20
2022-12-28T12:43:43.482Z,19.5
2022-12-28T12:44:53.187Z,19.6
2022-12-28T12:46:05.746Z,18.3
2022-12-28T12:47:23.091Z,20.2
2022-12-28T12:48:35.335Z,17.3
2022-12-28T12:49:50.731Z,17.6
2022-12-28T12:51:03.361Z,19.5
2022-12-28T12:52:18.514Z,18
2022-12-28T12:53:30.805Z,18.3
2022-12-28T12:54:48.263Z,19.2
2022-12-28T12:56:00.227Z,16.8
2022-12-28T12:57:09.842Z,16.5
2022-12-28T12:58:24.661Z,18.4
2022-12-28T12:59:37.067Z,15.2
2022-12-28T13:00:51.811Z,17.3
2022-12-28T13:02:04.091Z,16.6
2022-12-28T13:03:16.149Z,18.8
2022-12-28T13:04:23.231Z,18.9
2022-12-28T13:05:30.469Z,19.5
2022-12-28T13:06:37.833Z,20.1
2022-12-28T13:07:44.881Z,18.9
2022-12-28T13:08:54.167Z,17.9
2022-12-28T13:10:02.666Z,17.4
2022-12-28T13:11:10.013Z,19
2022-12-28T13:12:17.115Z,18.7
2022-12-28T13:13:24.290Z,15
2022-12-28T13:14:31.472Z,15.6
2022-12-28T13:15:38.863Z,16
2022-12-28T13:16:45.787Z,17
2022-12-28T13:17:55.397Z,15.4
2022-12-28T13:19:07.973Z,15.8
2022-12-28T13:20:15.223Z,14.8
2022-12-28T13:21:22.369Z,15.4
2022-12-28T13:22:29.460Z,13.7
2022-12-28T13:23:36.549Z,16
2022-12-28T13:24:46.307Z,15.7
2022-12-28T13:25:53.388Z,15
2022-12-28T13:27:07.696Z,15.1
2022-12-28T13:28:10.481Z,15
2022-12-28T13:29:25.389Z,17.2
2022-12-28T13:30:37.622Z,18.2
2022-12-28T13:31:44.818Z,18.5
2022-12-28T13:32:54.496Z,17.8
2022-12-28T13:34:01.388Z,19.4
2022-12-28T13:35:08.493Z,17.8
2022-12-28T13:36:20.728Z,16.3
2022-12-28T13:37:27.448Z,17.9
2022-12-28T13:38:34.638Z,18.3
2022-12-28T13:39:42.637Z,18.1
2022-12-28T13:40:48.991Z,17.6
2022-12-28T13:41:56.097Z,15.6
2022-12-28T13:43:05.904Z,16.1
2022-12-28T13:44:23.330Z,20.3
2022-12-28T13:45:41.094Z,18.1
2022-12-28T13:46:47.828Z,16.5
2022-12-28T13:47:57.539Z,17.6
2022-12-28T13:49:04.418Z,18.6
2022-12-28T13:50:11.539Z,17.3
2022-12-28T13:51:21.272Z,14.6
2022-12-28T13:52:28.617Z,18.2
2022-12-28T13:53:40.672Z,19.5
2022-12-28T13:54:50.913Z,19.6
2022-12-28T13:55:58.176Z,15.2
2022-12-28T13:57:36.238Z,16.3
2022-12-28T13:58:12.158Z,15.5
2022-12-28T13:59:19.233Z,20.9
2022-12-28T14:00:26.465Z,22.1
2022-12-28T14:01:33.698Z,19.1
2022-12-28T14:02:40.789Z,17.9
2022-12-28T14:03:50.235Z,19.4
2022-12-28T14:05:00.421Z,23.6
2022-12-28T14:06:07.721Z,20
2022-12-28T14:07:14.685Z,25.2
2022-12-28T14:08:21.816Z,25.4
2022-12-28T14:09:29.009Z,26
2022-12-28T14:10:36.062Z,21.2
2022-12-28T14:11:43.398Z,23.5
2022-12-28T14:12:50.619Z,21.7
2022-12-28T14:13:57.602Z,30
2022-12-28T14:15:04.472Z,23.2
2022-12-28T14:16:12.153Z,22.9
2022-12-28T14:17:19.437Z,21.6
2022-12-28T14:18:26.727Z,21.5
2022-12-28T14:19:38.776Z,21
2022-12-28T14:20:45.428Z,21.9
2022-12-28T14:21:52.628Z,22.3
2022-12-28T14:22:59.752Z,21
2022-12-28T14:24:17.297Z,23.2
2022-12-28T14:25:24.166Z,22
2022-12-28T14:26:31.133Z,23.2
2022-12-28T14:27:38.328Z,17.4
2022-12-28T14:28:45.475Z,18.5
2022-12-28T14:29:55.177Z,18.5
2022-12-28T14:31:02.070Z,17.9
2022-12-28T14:32:09.228Z,17.3
2022-12-28T14:33:22.448Z,15.3
2022-12-28T14:34:23.503Z,15.3
2022-12-28T14:35:30.232Z,15.5
2022-12-28T14:36:37.286Z,16.8
2022-12-28T14:37:44.421Z,15.3
2022-12-28T14:38:56.296Z,14.7
2022-12-28T14:40:01.045Z,15.2
2022-12-28T14:41:08.830Z,15.4
2022-12-28T14:42:20.947Z,15.6
2022-12-28T14:43:27.685Z,15.4
2022-12-28T14:44:34.940Z,13.3
2022-12-28T14:46:04.728Z,15.4
2022-12-28T14:46:49.147Z,14.2
2022-12-28T14:47:56.308Z,14.8
2022-12-28T14:49:03.172Z,14.2
2022-12-28T14:50:20.545Z,16.9
2022-12-28T14:51:27.657Z,13.9
2022-12-28T14:52:34.748Z,14.9
2022-12-28T14:53:47.207Z,15.9
2022-12-28T14:55:04.710Z,16
2022-12-28T14:56:22.146Z,15.6
2022-12-28T14:57:29.224Z,14.3
2022-12-28T14:58:38.930Z,13.8
2022-12-28T14:59:51.152Z,13.8
2022-12-28T15:01:08.245Z,13.8
2022-12-28T15:02:15.504Z,13.8
2022-12-28T15:03:32.700Z,13.8
2022-12-28T15:04:50.220Z,13.8
2022-12-28T15:05:57.525Z,13.8
2022-12-28T15:07:04.607Z,13.8
2022-12-28T15:08:11.752Z,13.8
2022-12-28T15:09:18.427Z,13.8
2022-12-28T15:10:25.513Z,13.8
2022-12-28T15:11:32.214Z,13.8
2022-12-28T15:12:39.358Z,13.8
2022-12-28T15:13:46.426Z,13.8
2022-12-28T15:14:53.135Z,13.8
2022-12-28T15:16:00.385Z,13.8
2022-12-28T15:17:10.182Z,13.8
2022-12-28T15:18:17.333Z,13.8
2022-12-28T15:19:24.757Z,13.8